sensor_id;sensor_type;location;lat;lon;timestamp;temperature;humidity
53310;DHT22;39197;53.200;5.792;2023-06-14T00:00:07;17.40;99.90
53310;DHT22;39197;53.200;5.792;2023-06-14T00:02:33;17.30;99.90
53310;DHT22;39197;53.200;5.792;2023-06-14T00:04:59;17.20;99.90
53310;DHT22;39197;53.200;5.792;2023-06-14T00:07:34;17.20;99.90
53310;DHT22;39197;53.200;5.792;2023-06-14T00:10:00;17.20;99.90
53310;DHT22;39197;53.200;5.792;2023-06-14T00:12:25;17.20;99.90
53310;DHT22;39197;53.200;5.792;2023-06-14T00:14:51;17.10;99.90
53310;DHT22;39197;53.200;5.792;2023-06-14T00:17:17;17.10;99.90
53310;DHT22;39197;53.200;5.792;2023-06-14T00:19:42;17.00;99.90
53310;DHT22;39197;53.200;5.792;2023-06-14T00:22:08;17.00;99.90
53310;DHT22;39197;53.200;5.792;2023-06-14T00:24:34;16.90;99.90
53310;DHT22;39197;53.200;5.792;2023-06-14T00:27:00;17.00;99.90
53310;DHT22;39197;53.200;5.792;2023-06-14T00:29:26;16.90;99.90
53310;DHT22;39197;53.200;5.792;2023-06-14T00:31:51;16.90;99.90
53310;DHT22;39197;53.200;5.792;2023-06-14T00:34:17;16.80;99.90
53310;DHT22;39197;53.200;5.792;2023-06-14T00:36:43;16.70;99.90
53310;DHT22;39197;53.200;5.792;2023-06-14T00:39:08;16.70;99.90
53310;DHT22;39197;53.200;5.792;2023-06-14T00:41:35;16.70;99.90
53310;DHT22;39197;53.200;5.792;2023-06-14T00:44:00;16.60;99.90
53310;DHT22;39197;53.200;5.792;2023-06-14T00:46:26;16.60;99.90
53310;DHT22;39197;53.200;5.792;2023-06-14T00:48:52;16.50;99.90
53310;DHT22;39197;53.200;5.792;2023-06-14T00:51:18;16.50;99.90
53310;DHT22;39197;53.200;5.792;2023-06-14T00:53:44;16.50;99.90
53310;DHT22;39197;53.200;5.792;2023-06-14T00:56:13;16.40;99.90
53310;DHT22;39197;53.200;5.792;2023-06-14T00:58:40;16.40;99.90
53310;DHT22;39197;53.200;5.792;2023-06-14T01:01:06;16.30;99.90
53310;DHT22;39197;53.200;5.792;2023-06-14T01:03:32;16.30;99.90
53310;DHT22;39197;53.200;5.792;2023-06-14T01:06:10;16.20;99.90
53310;DHT22;39197;53.200;5.792;2023-06-14T01:08:50;16.20;99.90
53310;DHT22;39197;53.200;5.792;2023-06-14T01:11:23;16.10;99.90
53310;DHT22;39197;53.200;5.792;2023-06-14T01:13:52;16.10;99.90
53310;DHT22;39197;53.200;5.792;2023-06-14T01:16:19;16.10;99.90
53310;DHT22;39197;53.200;5.792;2023-06-14T01:18:45;16.00;99.90
53310;DHT22;39197;53.200;5.792;2023-06-14T01:21:25;16.00;99.90
53310;DHT22;39197;53.200;5.792;2023-06-14T01:23:51;15.90;99.90
53310;DHT22;39197;53.200;5.792;2023-06-14T01:26:22;15.90;99.90
53310;DHT22;39197;53.200;5.792;2023-06-14T01:28:49;15.90;99.90
53310;DHT22;39197;53.200;5.792;2023-06-14T01:31:20;15.80;99.90
53310;DHT22;39197;53.200;5.792;2023-06-14T01:33:48;15.80;99.90
53310;DHT22;39197;53.200;5.792;2023-06-14T01:36:19;15.80;99.90
53310;DHT22;39197;53.200;5.792;2023-06-14T01:38:46;15.80;99.90
53310;DHT22;39197;53.200;5.792;2023-06-14T01:41:14;15.70;99.90
53310;DHT22;39197;53.200;5.792;2023-06-14T01:43:41;15.70;99.90
53310;DHT22;39197;53.200;5.792;2023-06-14T01:46:08;15.70;99.90
53310;DHT22;39197;53.200;5.792;2023-06-14T01:48:34;15.70;99.90
53310;DHT22;39197;53.200;5.792;2023-06-14T01:51:00;15.70;99.90
53310;DHT22;39197;53.200;5.792;2023-06-14T01:53:25;15.70;99.90
53310;DHT22;39197;53.200;5.792;2023-06-14T01:55:51;15.60;99.90
53310;DHT22;39197;53.200;5.792;2023-06-14T01:58:19;15.60;99.90
53310;DHT22;39197;53.200;5.792;2023-06-14T02:00:45;15.60;99.90
53310;DHT22;39197;53.200;5.792;2023-06-14T02:03:11;15.60;99.90
53310;DHT22;39197;53.200;5.792;2023-06-14T02:05:37;15.50;99.90
53310;DHT22;39197;53.200;5.792;2023-06-14T02:08:05;15.50;99.90
53310;DHT22;39197;53.200;5.792;2023-06-14T02:10:30;15.60;99.90
53310;DHT22;39197;53.200;5.792;2023-06-14T02:12:56;15.40;99.90
53310;DHT22;39197;53.200;5.792;2023-06-14T02:15:22;15.50;99.90
53310;DHT22;39197;53.200;5.792;2023-06-14T02:17:48;15.40;99.90
53310;DHT22;39197;53.200;5.792;2023-06-14T02:20:15;15.30;99.90
53310;DHT22;39197;53.200;5.792;2023-06-14T02:22:41;15.30;99.90
53310;DHT22;39197;53.200;5.792;2023-06-14T02:25:07;15.30;99.90
53310;DHT22;39197;53.200;5.792;2023-06-14T02:27:33;15.30;99.90
53310;DHT22;39197;53.200;5.792;2023-06-14T02:29:59;15.30;99.90
53310;DHT22;39197;53.200;5.792;2023-06-14T02:32:26;15.30;99.90
53310;DHT22;39197;53.200;5.792;2023-06-14T02:34:53;15.20;99.90
53310;DHT22;39197;53.200;5.792;2023-06-14T02:37:19;15.20;99.90
53310;DHT22;39197;53.200;5.792;2023-06-14T02:39:45;15.20;99.90
53310;DHT22;39197;53.200;5.792;2023-06-14T02:42:10;15.10;99.90
53310;DHT22;39197;53.200;5.792;2023-06-14T02:44:36;15.20;99.90
53310;DHT22;39197;53.200;5.792;2023-06-14T02:47:02;15.10;99.90
53310;DHT22;39197;53.200;5.792;2023-06-14T02:49:28;15.10;99.90
53310;DHT22;39197;53.200;5.792;2023-06-14T02:51:55;15.10;99.90
53310;DHT22;39197;53.200;5.792;2023-06-14T02:54:20;15.00;99.90
53310;DHT22;39197;53.200;5.792;2023-06-14T02:56:46;15.10;99.90
53310;DHT22;39197;53.200;5.792;2023-06-14T02:59:11;15.00;99.90
53310;DHT22;39197;53.200;5.792;2023-06-14T03:01:39;15.00;99.90
53310;DHT22;39197;53.200;5.792;2023-06-14T03:04:07;15.00;99.90
53310;DHT22;39197;53.200;5.792;2023-06-14T03:06:33;14.90;99.90
53310;DHT22;39197;53.200;5.792;2023-06-14T03:08:59;14.90;99.90
53310;DHT22;39197;53.200;5.792;2023-06-14T03:11:26;14.90;99.90
53310;DHT22;39197;53.200;5.792;2023-06-14T03:13:53;14.90;99.90
53310;DHT22;39197;53.200;5.792;2023-06-14T03:16:19;14.90;99.90
53310;DHT22;39197;53.200;5.792;2023-06-14T03:18:45;14.90;99.90
53310;DHT22;39197;53.200;5.792;2023-06-14T03:21:10;14.80;99.90
53310;DHT22;39197;53.200;5.792;2023-06-14T03:23:36;14.80;99.90
53310;DHT22;39197;53.200;5.792;2023-06-14T03:26:02;14.80;99.90
53310;DHT22;39197;53.200;5.792;2023-06-14T03:28:27;14.80;99.90
53310;DHT22;39197;53.200;5.792;2023-06-14T03:30:53;14.80;99.90
53310;DHT22;39197;53.200;5.792;2023-06-14T03:33:19;14.70;99.90
53310;DHT22;39197;53.200;5.792;2023-06-14T03:35:45;14.70;99.90
53310;DHT22;39197;53.200;5.792;2023-06-14T03:38:10;14.70;99.90
53310;DHT22;39197;53.200;5.792;2023-06-14T03:40:36;14.60;99.90
53310;DHT22;39197;53.200;5.792;2023-06-14T03:43:01;14.60;99.90
53310;DHT22;39197;53.200;5.792;2023-06-14T03:45:27;14.60;99.90
53310;DHT22;39197;53.200;5.792;2023-06-14T03:47:53;14.60;99.90
53310;DHT22;39197;53.200;5.792;2023-06-14T03:50:20;14.60;99.90
53310;DHT22;39197;53.200;5.792;2023-06-14T03:52:50;14.60;99.90
53310;DHT22;39197;53.200;5.792;2023-06-14T03:55:16;14.60;99.90
53310;DHT22;39197;53.200;5.792;2023-06-14T03:57:41;14.60;99.90
53310;DHT22;39197;53.200;5.792;2023-06-14T04:00:09;14.60;99.90
53310;DHT22;39197;53.200;5.792;2023-06-14T04:02:35;14.60;99.90
53310;DHT22;39197;53.200;5.792;2023-06-14T04:05:02;14.60;99.90
53310;DHT22;39197;53.200;5.792;2023-06-14T04:07:28;14.70;99.90
53310;DHT22;39197;53.200;5.792;2023-06-14T04:09:54;14.70;99.90
53310;DHT22;39197;53.200;5.792;2023-06-14T04:12:21;14.70;99.90
53310;DHT22;39197;53.200;5.792;2023-06-14T04:14:46;14.80;99.90
53310;DHT22;39197;53.200;5.792;2023-06-14T04:17:12;14.80;99.90
53310;DHT22;39197;53.200;5.792;2023-06-14T04:19:37;14.80;99.90
53310;DHT22;39197;53.200;5.792;2023-06-14T04:22:03;14.80;99.90
53310;DHT22;39197;53.200;5.792;2023-06-14T04:24:29;14.90;99.90
53310;DHT22;39197;53.200;5.792;2023-06-14T04:26:58;14.90;99.90
53310;DHT22;39197;53.200;5.792;2023-06-14T04:29:25;14.90;99.90
53310;DHT22;39197;53.200;5.792;2023-06-14T04:31:54;15.00;99.90
53310;DHT22;39197;53.200;5.792;2023-06-14T04:34:20;15.00;99.90
53310;DHT22;39197;53.200;5.792;2023-06-14T04:36:47;15.00;99.90
53310;DHT22;39197;53.200;5.792;2023-06-14T04:39:22;15.10;99.90
53310;DHT22;39197;53.200;5.792;2023-06-14T04:41:48;15.10;99.90
53310;DHT22;39197;53.200;5.792;2023-06-14T04:44:17;15.10;99.90
53310;DHT22;39197;53.200;5.792;2023-06-14T04:46:43;15.20;99.90
53310;DHT22;39197;53.200;5.792;2023-06-14T04:49:13;15.20;99.90
53310;DHT22;39197;53.200;5.792;2023-06-14T04:51:41;15.30;99.90
53310;DHT22;39197;53.200;5.792;2023-06-14T04:54:08;15.30;99.90
53310;DHT22;39197;53.200;5.792;2023-06-14T04:56:37;15.40;99.90
53310;DHT22;39197;53.200;5.792;2023-06-14T04:59:03;15.40;99.90
53310;DHT22;39197;53.200;5.792;2023-06-14T05:01:31;15.50;99.90
53310;DHT22;39197;53.200;5.792;2023-06-14T05:03:57;15.50;99.90
53310;DHT22;39197;53.200;5.792;2023-06-14T05:06:23;15.60;99.90
53310;DHT22;39197;53.200;5.792;2023-06-14T05:08:49;15.70;99.90
53310;DHT22;39197;53.200;5.792;2023-06-14T05:11:15;15.70;99.90
53310;DHT22;39197;53.200;5.792;2023-06-14T05:13:42;15.70;99.90
53310;DHT22;39197;53.200;5.792;2023-06-14T05:16:08;15.80;99.90
53310;DHT22;39197;53.200;5.792;2023-06-14T05:18:34;15.80;99.90
53310;DHT22;39197;53.200;5.792;2023-06-14T05:21:01;15.90;99.90
53310;DHT22;39197;53.200;5.792;2023-06-14T05:23:27;15.90;99.90
53310;DHT22;39197;53.200;5.792;2023-06-14T05:25:52;16.00;99.90
53310;DHT22;39197;53.200;5.792;2023-06-14T05:28:18;16.00;99.90
53310;DHT22;39197;53.200;5.792;2023-06-14T05:30:44;16.00;99.90
53310;DHT22;39197;53.200;5.792;2023-06-14T05:33:09;16.00;99.90
53310;DHT22;39197;53.200;5.792;2023-06-14T05:35:35;16.10;99.90
53310;DHT22;39197;53.200;5.792;2023-06-14T05:38:00;16.10;99.90
53310;DHT22;39197;53.200;5.792;2023-06-14T05:40:26;16.10;99.90
53310;DHT22;39197;53.200;5.792;2023-06-14T05:42:52;16.10;99.90
53310;DHT22;39197;53.200;5.792;2023-06-14T05:45:17;16.20;99.90
53310;DHT22;39197;53.200;5.792;2023-06-14T05:47:43;16.30;99.90
53310;DHT22;39197;53.200;5.792;2023-06-14T05:50:09;16.40;99.90
53310;DHT22;39197;53.200;5.792;2023-06-14T05:52:35;16.50;99.90
53310;DHT22;39197;53.200;5.792;2023-06-14T05:55:04;16.60;99.90
53310;DHT22;39197;53.200;5.792;2023-06-14T05:57:30;16.60;99.90
53310;DHT22;39197;53.200;5.792;2023-06-14T05:59:57;16.70;99.90
53310;DHT22;39197;53.200;5.792;2023-06-14T06:02:22;16.70;99.90
53310;DHT22;39197;53.200;5.792;2023-06-14T06:04:48;16.80;99.90
53310;DHT22;39197;53.200;5.792;2023-06-14T06:07:13;16.90;99.90
53310;DHT22;39197;53.200;5.792;2023-06-14T06:09:39;17.00;99.90
53310;DHT22;39197;53.200;5.792;2023-06-14T06:12:06;17.00;99.90
53310;DHT22;39197;53.200;5.792;2023-06-14T06:14:32;17.10;99.90
53310;DHT22;39197;53.200;5.792;2023-06-14T06:16:58;17.20;99.90
53310;DHT22;39197;53.200;5.792;2023-06-14T06:19:24;17.40;99.90
53310;DHT22;39197;53.200;5.792;2023-06-14T06:21:49;17.50;99.90
53310;DHT22;39197;53.200;5.792;2023-06-14T06:24:15;17.60;99.90
53310;DHT22;39197;53.200;5.792;2023-06-14T06:26:41;17.70;99.90
53310;DHT22;39197;53.200;5.792;2023-06-14T06:29:06;17.80;99.90
53310;DHT22;39197;53.200;5.792;2023-06-14T06:31:32;17.80;99.90
53310;DHT22;39197;53.200;5.792;2023-06-14T06:33:58;17.90;99.90
53310;DHT22;39197;53.200;5.792;2023-06-14T06:36:24;17.90;99.90
53310;DHT22;39197;53.200;5.792;2023-06-14T06:38:50;17.90;99.90
53310;DHT22;39197;53.200;5.792;2023-06-14T06:41:15;18.00;99.90
53310;DHT22;39197;53.200;5.792;2023-06-14T06:43:41;18.00;99.90
53310;DHT22;39197;53.200;5.792;2023-06-14T06:46:07;18.00;99.90
53310;DHT22;39197;53.200;5.792;2023-06-14T06:48:32;18.10;99.90
53310;DHT22;39197;53.200;5.792;2023-06-14T06:50:58;18.30;99.90
53310;DHT22;39197;53.200;5.792;2023-06-14T06:53:23;18.30;99.90
53310;DHT22;39197;53.200;5.792;2023-06-14T06:55:49;18.40;99.90
53310;DHT22;39197;53.200;5.792;2023-06-14T06:58:14;18.50;99.90
53310;DHT22;39197;53.200;5.792;2023-06-14T07:00:40;18.60;99.90
53310;DHT22;39197;53.200;5.792;2023-06-14T07:03:06;18.70;99.90
53310;DHT22;39197;53.200;5.792;2023-06-14T07:05:32;18.80;99.90
53310;DHT22;39197;53.200;5.792;2023-06-14T07:07:58;18.90;99.90
53310;DHT22;39197;53.200;5.792;2023-06-14T07:10:23;18.90;99.90
53310;DHT22;39197;53.200;5.792;2023-06-14T07:12:53;19.10;99.90
53310;DHT22;39197;53.200;5.792;2023-06-14T07:15:18;19.20;99.90
53310;DHT22;39197;53.200;5.792;2023-06-14T07:17:44;19.40;99.90
53310;DHT22;39197;53.200;5.792;2023-06-14T07:20:10;20.20;99.90
53310;DHT22;39197;53.200;5.792;2023-06-14T07:22:42;20.90;99.90
53310;DHT22;39197;53.200;5.792;2023-06-14T07:25:09;21.60;99.90
53310;DHT22;39197;53.200;5.792;2023-06-14T07:27:35;22.00;99.90
53310;DHT22;39197;53.200;5.792;2023-06-14T07:30:01;22.30;99.90
53310;DHT22;39197;53.200;5.792;2023-06-14T07:32:26;22.40;99.90
53310;DHT22;39197;53.200;5.792;2023-06-14T07:34:52;22.70;99.90
53310;DHT22;39197;53.200;5.792;2023-06-14T07:37:17;23.00;99.90
53310;DHT22;39197;53.200;5.792;2023-06-14T07:39:43;23.20;99.10
53310;DHT22;39197;53.200;5.792;2023-06-14T07:42:08;23.40;99.20
53310;DHT22;39197;53.200;5.792;2023-06-14T07:44:34;23.60;98.40
53310;DHT22;39197;53.200;5.792;2023-06-14T07:47:00;23.60;97.50
53310;DHT22;39197;53.200;5.792;2023-06-14T07:49:27;23.60;97.60
53310;DHT22;39197;53.200;5.792;2023-06-14T07:51:52;23.90;96.80
53310;DHT22;39197;53.200;5.792;2023-06-14T07:54:19;24.20;96.10
53310;DHT22;39197;53.200;5.792;2023-06-14T07:56:45;24.40;95.70
53310;DHT22;39197;53.200;5.792;2023-06-14T07:59:11;24.20;95.20
53310;DHT22;39197;53.200;5.792;2023-06-14T08:01:36;24.00;95.00
53310;DHT22;39197;53.200;5.792;2023-06-14T08:04:02;24.10;95.30
53310;DHT22;39197;53.200;5.792;2023-06-14T08:06:28;24.20;95.10
53310;DHT22;39197;53.200;5.792;2023-06-14T08:08:53;24.50;94.70
53310;DHT22;39197;53.200;5.792;2023-06-14T08:11:19;24.80;93.90
53310;DHT22;39197;53.200;5.792;2023-06-14T08:13:45;25.20;93.00
53310;DHT22;39197;53.200;5.792;2023-06-14T08:16:10;25.40;92.70
53310;DHT22;39197;53.200;5.792;2023-06-14T08:18:36;25.50;92.10
53310;DHT22;39197;53.200;5.792;2023-06-14T08:21:01;25.40;92.10
53310;DHT22;39197;53.200;5.792;2023-06-14T08:23:28;25.20;92.30
53310;DHT22;39197;53.200;5.792;2023-06-14T08:25:53;25.20;92.00
53310;DHT22;39197;53.200;5.792;2023-06-14T08:28:20;25.60;92.10
53310;DHT22;39197;53.200;5.792;2023-06-14T08:30:45;25.80;91.60
53310;DHT22;39197;53.200;5.792;2023-06-14T08:33:11;26.10;91.20
53310;DHT22;39197;53.200;5.792;2023-06-14T08:35:37;26.20;90.60
53310;DHT22;39197;53.200;5.792;2023-06-14T08:38:04;26.30;90.50
53310;DHT22;39197;53.200;5.792;2023-06-14T08:40:30;26.50;90.20
53310;DHT22;39197;53.200;5.792;2023-06-14T08:42:56;26.40;90.00
53310;DHT22;39197;53.200;5.792;2023-06-14T08:45:23;26.60;88.90
53310;DHT22;39197;53.200;5.792;2023-06-14T08:47:50;26.30;88.80
53310;DHT22;39197;53.200;5.792;2023-06-14T08:50:21;26.50;89.40
53310;DHT22;39197;53.200;5.792;2023-06-14T08:52:48;26.50;88.20
53310;DHT22;39197;53.200;5.792;2023-06-14T08:55:16;26.60;88.00
53310;DHT22;39197;53.200;5.792;2023-06-14T08:57:44;26.30;88.00
53310;DHT22;39197;53.200;5.792;2023-06-14T09:00:12;26.40;88.00
53310;DHT22;39197;53.200;5.792;2023-06-14T09:02:39;26.90;86.90
53310;DHT22;39197;53.200;5.792;2023-06-14T09:05:09;26.90;86.60
53310;DHT22;39197;53.200;5.792;2023-06-14T09:07:37;26.50;86.10
53310;DHT22;39197;53.200;5.792;2023-06-14T09:10:13;26.50;86.40
53310;DHT22;39197;53.200;5.792;2023-06-14T09:12:40;26.50;86.60
53310;DHT22;39197;53.200;5.792;2023-06-14T09:15:06;26.50;85.70
53310;DHT22;39197;53.200;5.792;2023-06-14T09:17:37;26.30;86.10
53310;DHT22;39197;53.200;5.792;2023-06-14T09:20:04;26.60;85.50
53310;DHT22;39197;53.200;5.792;2023-06-14T09:22:32;26.60;85.00
53310;DHT22;39197;53.200;5.792;2023-06-14T09:24:58;27.00;84.80
53310;DHT22;39197;53.200;5.792;2023-06-14T09:27:27;27.00;84.50
53310;DHT22;39197;53.200;5.792;2023-06-14T09:29:53;27.00;84.30
53310;DHT22;39197;53.200;5.792;2023-06-14T09:32:20;27.00;83.50
53310;DHT22;39197;53.200;5.792;2023-06-14T09:34:46;27.00;83.30
53310;DHT22;39197;53.200;5.792;2023-06-14T09:37:12;27.00;84.00
53310;DHT22;39197;53.200;5.792;2023-06-14T09:39:52;27.00;84.30
53310;DHT22;39197;53.200;5.792;2023-06-14T09:42:19;27.40;84.10
53310;DHT22;39197;53.200;5.792;2023-06-14T09:44:48;27.70;83.30
53310;DHT22;39197;53.200;5.792;2023-06-14T09:47:15;28.20;81.40
53310;DHT22;39197;53.200;5.792;2023-06-14T09:49:41;28.60;80.20
53310;DHT22;39197;53.200;5.792;2023-06-14T09:52:10;28.80;79.10
53310;DHT22;39197;53.200;5.792;2023-06-14T09:54:41;28.30;78.50
53310;DHT22;39197;53.200;5.792;2023-06-14T09:57:10;28.20;79.00
53310;DHT22;39197;53.200;5.792;2023-06-14T09:59:42;28.10;79.50
53310;DHT22;39197;53.200;5.792;2023-06-14T10:02:18;28.30;78.80
53310;DHT22;39197;53.200;5.792;2023-06-14T10:04:53;28.10;76.80
53310;DHT22;39197;53.200;5.792;2023-06-14T10:07:24;28.20;77.70
53310;DHT22;39197;53.200;5.792;2023-06-14T10:09:53;28.20;78.00
53310;DHT22;39197;53.200;5.792;2023-06-14T10:12:19;28.20;78.90
53310;DHT22;39197;53.200;5.792;2023-06-14T10:14:52;28.40;77.50
53310;DHT22;39197;53.200;5.792;2023-06-14T10:17:43;28.50;78.20
53310;DHT22;39197;53.200;5.792;2023-06-14T10:20:25;28.80;78.40
53310;DHT22;39197;53.200;5.792;2023-06-14T10:23:17;29.10;77.90
53310;DHT22;39197;53.200;5.792;2023-06-14T10:25:44;29.50;76.60
53310;DHT22;39197;53.200;5.792;2023-06-14T10:28:20;29.80;75.50
53310;DHT22;39197;53.200;5.792;2023-06-14T10:31:08;30.20;74.90
53310;DHT22;39197;53.200;5.792;2023-06-14T10:38:57;30.40;73.90
53310;DHT22;39197;53.200;5.792;2023-06-14T10:41:23;30.70;73.40
53310;DHT22;39197;53.200;5.792;2023-06-14T10:43:51;30.40;73.80
53310;DHT22;39197;53.200;5.792;2023-06-14T10:46:20;30.90;73.80
53310;DHT22;39197;53.200;5.792;2023-06-14T10:48:48;30.90;72.80
53310;DHT22;39197;53.200;5.792;2023-06-14T10:51:19;30.50;73.20
53310;DHT22;39197;53.200;5.792;2023-06-14T10:53:48;30.80;73.40
53310;DHT22;39197;53.200;5.792;2023-06-14T10:56:35;30.80;73.30
53310;DHT22;39197;53.200;5.792;2023-06-14T10:59:04;30.50;73.20
53310;DHT22;39197;53.200;5.792;2023-06-14T11:01:38;30.70;72.70
53310;DHT22;39197;53.200;5.792;2023-06-14T11:04:12;30.50;73.40
53310;DHT22;39197;53.200;5.792;2023-06-14T11:06:48;30.50;73.20
53310;DHT22;39197;53.200;5.792;2023-06-14T11:09:22;30.60;72.30
53310;DHT22;39197;53.200;5.792;2023-06-14T11:11:56;30.90;72.20
53310;DHT22;39197;53.200;5.792;2023-06-14T11:14:22;30.80;72.30
53310;DHT22;39197;53.200;5.792;2023-06-14T11:16:49;30.90;72.80
53310;DHT22;39197;53.200;5.792;2023-06-14T11:19:15;30.80;72.10
53310;DHT22;39197;53.200;5.792;2023-06-14T11:21:42;31.00;71.90
53310;DHT22;39197;53.200;5.792;2023-06-14T11:24:11;31.00;71.90
53310;DHT22;39197;53.200;5.792;2023-06-14T11:26:38;30.90;71.60
53310;DHT22;39197;53.200;5.792;2023-06-14T11:29:04;30.80;71.60
53310;DHT22;39197;53.200;5.792;2023-06-14T11:31:29;30.50;71.70
53310;DHT22;39197;53.200;5.792;2023-06-14T11:33:56;30.80;71.80
53310;DHT22;39197;53.200;5.792;2023-06-14T11:36:27;31.00;70.50
53310;DHT22;39197;53.200;5.792;2023-06-14T11:38:59;31.10;70.30
53310;DHT22;39197;53.200;5.792;2023-06-14T11:41:25;30.50;70.90
53310;DHT22;39197;53.200;5.792;2023-06-14T11:43:54;30.50;71.50
53310;DHT22;39197;53.200;5.792;2023-06-14T11:46:20;30.60;70.50
53310;DHT22;39197;53.200;5.792;2023-06-14T11:48:49;30.80;70.80
53310;DHT22;39197;53.200;5.792;2023-06-14T11:51:15;30.90;70.10
53310;DHT22;39197;53.200;5.792;2023-06-14T11:53:42;31.00;71.10
53310;DHT22;39197;53.200;5.792;2023-06-14T11:56:08;31.10;70.00
53310;DHT22;39197;53.200;5.792;2023-06-14T11:58:34;30.90;70.20
53310;DHT22;39197;53.200;5.792;2023-06-14T12:01:00;30.60;70.50
53310;DHT22;39197;53.200;5.792;2023-06-14T12:03:26;30.70;70.40
53310;DHT22;39197;53.200;5.792;2023-06-14T12:06:28;30.40;70.00
53310;DHT22;39197;53.200;5.792;2023-06-14T12:08:56;30.70;70.00
53310;DHT22;39197;53.200;5.792;2023-06-14T12:11:22;30.40;69.70
53310;DHT22;39197;53.200;5.792;2023-06-14T12:13:49;30.70;69.20
53310;DHT22;39197;53.200;5.792;2023-06-14T12:16:14;30.70;69.30
53310;DHT22;39197;53.200;5.792;2023-06-14T12:18:41;31.00;69.00
53310;DHT22;39197;53.200;5.792;2023-06-14T12:21:09;31.10;69.10
53310;DHT22;39197;53.200;5.792;2023-06-14T12:23:49;31.20;68.60
53310;DHT22;39197;53.200;5.792;2023-06-14T12:26:19;31.00;69.00
53310;DHT22;39197;53.200;5.792;2023-06-14T12:28:46;31.20;69.20
53310;DHT22;39197;53.200;5.792;2023-06-14T12:31:13;31.00;68.90
53310;DHT22;39197;53.200;5.792;2023-06-14T12:33:40;30.40;69.20
53310;DHT22;39197;53.200;5.792;2023-06-14T12:36:10;30.10;69.30
53310;DHT22;39197;53.200;5.792;2023-06-14T12:38:36;29.60;70.40
53310;DHT22;39197;53.200;5.792;2023-06-14T12:41:03;29.80;70.50
53310;DHT22;39197;53.200;5.792;2023-06-14T12:43:28;29.90;70.50
53310;DHT22;39197;53.200;5.792;2023-06-14T12:45:54;29.90;69.80
53310;DHT22;39197;53.200;5.792;2023-06-14T12:48:20;30.10;69.70
53310;DHT22;39197;53.200;5.792;2023-06-14T12:50:46;30.20;69.70
53310;DHT22;39197;53.200;5.792;2023-06-14T12:53:12;30.40;69.60
53310;DHT22;39197;53.200;5.792;2023-06-14T12:55:37;30.20;69.00
53310;DHT22;39197;53.200;5.792;2023-06-14T12:58:03;30.50;69.50
53310;DHT22;39197;53.200;5.792;2023-06-14T13:00:29;30.70;75.40
53310;DHT22;39197;53.200;5.792;2023-06-14T13:02:59;30.60;77.90
53310;DHT22;39197;53.200;5.792;2023-06-14T13:05:24;30.80;78.60
53310;DHT22;39197;53.200;5.792;2023-06-14T13:07:50;31.00;78.40
53310;DHT22;39197;53.200;5.792;2023-06-14T13:10:16;30.90;78.90
53310;DHT22;39197;53.200;5.792;2023-06-14T13:12:42;30.50;79.20
53310;DHT22;39197;53.200;5.792;2023-06-14T13:15:08;30.30;79.70
53310;DHT22;39197;53.200;5.792;2023-06-14T13:17:35;30.00;80.30
53310;DHT22;39197;53.200;5.792;2023-06-14T13:20:05;30.20;80.50
53310;DHT22;39197;53.200;5.792;2023-06-14T13:22:32;30.40;80.20
53310;DHT22;39197;53.200;5.792;2023-06-14T13:24:58;30.60;79.50
53310;DHT22;39197;53.200;5.792;2023-06-14T13:27:25;30.70;78.90
53310;DHT22;39197;53.200;5.792;2023-06-14T13:29:51;30.70;78.90
53310;DHT22;39197;53.200;5.792;2023-06-14T13:32:16;30.60;79.30
53310;DHT22;39197;53.200;5.792;2023-06-14T13:34:42;30.50;79.30
53310;DHT22;39197;53.200;5.792;2023-06-14T13:37:08;30.40;79.70
53310;DHT22;39197;53.200;5.792;2023-06-14T13:39:33;30.10;79.50
53310;DHT22;39197;53.200;5.792;2023-06-14T13:41:59;30.60;79.20
53310;DHT22;39197;53.200;5.792;2023-06-14T13:44:24;30.30;79.50
53310;DHT22;39197;53.200;5.792;2023-06-14T13:46:50;30.50;79.80
53310;DHT22;39197;53.200;5.792;2023-06-14T13:49:16;30.10;80.00
53310;DHT22;39197;53.200;5.792;2023-06-14T13:51:42;29.60;80.50
53310;DHT22;39197;53.200;5.792;2023-06-14T13:54:07;29.30;81.20
53310;DHT22;39197;53.200;5.792;2023-06-14T13:56:33;29.20;82.10
53310;DHT22;39197;53.200;5.792;2023-06-14T13:58:59;29.10;82.30
53310;DHT22;39197;53.200;5.792;2023-06-14T14:01:25;29.00;82.60
53310;DHT22;39197;53.200;5.792;2023-06-14T14:03:52;29.30;82.70
53310;DHT22;39197;53.200;5.792;2023-06-14T14:06:17;29.20;82.70
53310;DHT22;39197;53.200;5.792;2023-06-14T14:08:43;29.20;82.20
53310;DHT22;39197;53.200;5.792;2023-06-14T14:11:09;29.20;82.30
53310;DHT22;39197;53.200;5.792;2023-06-14T14:13:35;29.50;82.00
53310;DHT22;39197;53.200;5.792;2023-06-14T14:16:02;29.50;83.10
53310;DHT22;39197;53.200;5.792;2023-06-14T14:18:28;28.90;82.40
53310;DHT22;39197;53.200;5.792;2023-06-14T14:20:54;28.70;83.70
53310;DHT22;39197;53.200;5.792;2023-06-14T14:23:21;28.80;83.70
53310;DHT22;39197;53.200;5.792;2023-06-14T14:25:47;29.10;83.00
53310;DHT22;39197;53.200;5.792;2023-06-14T14:28:13;28.60;83.10
53310;DHT22;39197;53.200;5.792;2023-06-14T14:30:41;28.80;83.30
53310;DHT22;39197;53.200;5.792;2023-06-14T14:33:07;29.10;82.80
53310;DHT22;39197;53.200;5.792;2023-06-14T14:35:33;28.80;83.00
53310;DHT22;39197;53.200;5.792;2023-06-14T14:37:59;28.80;83.30
53310;DHT22;39197;53.200;5.792;2023-06-14T14:40:25;29.00;83.20
53310;DHT22;39197;53.200;5.792;2023-06-14T14:42:51;28.60;84.00
53310;DHT22;39197;53.200;5.792;2023-06-14T14:45:17;28.60;84.10
53310;DHT22;39197;53.200;5.792;2023-06-14T14:47:43;28.80;83.80
53310;DHT22;39197;53.200;5.792;2023-06-14T14:50:08;28.60;83.40
53310;DHT22;39197;53.200;5.792;2023-06-14T14:52:35;28.80;84.30
53310;DHT22;39197;53.200;5.792;2023-06-14T14:55:00;29.00;83.40
53310;DHT22;39197;53.200;5.792;2023-06-14T14:57:26;29.20;83.20
53310;DHT22;39197;53.200;5.792;2023-06-14T14:59:52;29.20;82.70
53310;DHT22;39197;53.200;5.792;2023-06-14T15:02:18;29.10;82.70
53310;DHT22;39197;53.200;5.792;2023-06-14T15:04:44;29.10;83.00
53310;DHT22;39197;53.200;5.792;2023-06-14T15:07:10;28.90;83.30
53310;DHT22;39197;53.200;5.792;2023-06-14T15:09:36;28.80;83.80
53310;DHT22;39197;53.200;5.792;2023-06-14T15:12:01;29.00;82.60
53310;DHT22;39197;53.200;5.792;2023-06-14T15:14:28;28.70;82.30
53310;DHT22;39197;53.200;5.792;2023-06-14T15:16:53;28.80;82.90
53310;DHT22;39197;53.200;5.792;2023-06-14T15:19:19;28.80;82.80
53310;DHT22;39197;53.200;5.792;2023-06-14T15:21:45;28.40;83.80
53310;DHT22;39197;53.200;5.792;2023-06-14T15:24:10;28.40;83.90
53310;DHT22;39197;53.200;5.792;2023-06-14T15:26:36;28.30;83.90
53310;DHT22;39197;53.200;5.792;2023-06-14T15:29:02;28.20;84.40
53310;DHT22;39197;53.200;5.792;2023-06-14T15:31:27;27.80;85.00
53310;DHT22;39197;53.200;5.792;2023-06-14T15:33:54;27.80;85.30